sensor_id;sensor_type;location;lat;lon;timestamp;temperature;humidity
52439;DHT22;38359;53.150;6.504;2023-03-01T00:03:13;1.30;99.90
52439;DHT22;38359;53.150;6.504;2023-03-01T00:13:40;1.40;99.90
52439;DHT22;38359;53.150;6.504;2023-03-01T00:24:06;0.90;99.90
52439;DHT22;38359;53.150;6.504;2023-03-01T00:34:32;1.10;99.90
52439;DHT22;38359;53.150;6.504;2023-03-01T00:44:58;1.20;99.90
52439;DHT22;38359;53.150;6.504;2023-03-01T00:55:24;0.90;99.90
52439;DHT22;38359;53.150;6.504;2023-03-01T01:05:51;0.80;99.90
52439;DHT22;38359;53.150;6.504;2023-03-01T01:16:19;0.30;99.90
52439;DHT22;38359;53.150;6.504;2023-03-01T01:26:46;0.20;99.90
52439;DHT22;38359;53.150;6.504;2023-03-01T01:37:11;0.50;99.90
52439;DHT22;38359;53.150;6.504;2023-03-01T01:47:37;0.40;99.90
52439;DHT22;38359;53.150;6.504;2023-03-01T01:58:05;-0.10;99.90
52439;DHT22;38359;53.150;6.504;2023-03-01T02:08:36;0.30;99.90
52439;DHT22;38359;53.150;6.504;2023-03-01T02:19:05;0.20;99.90
52439;DHT22;38359;53.150;6.504;2023-03-01T02:29:31;0.10;99.90
52439;DHT22;38359;53.150;6.504;2023-03-01T02:39:59;0.20;99.90
52439;DHT22;38359;53.150;6.504;2023-03-01T03:01:14;0.00;99.90
52439;DHT22;38359;53.150;6.504;2023-03-01T03:11:41;0.00;99.90
52439;DHT22;38359;53.150;6.504;2023-03-01T03:22:08;-0.80;99.90
52439;DHT22;38359;53.150;6.504;2023-03-01T03:32:45;-0.40;99.90
52439;DHT22;38359;53.150;6.504;2023-03-01T03:43:21;-0.80;99.90
52439;DHT22;38359;53.150;6.504;2023-03-01T03:53:48;-0.90;99.90
52439;DHT22;38359;53.150;6.504;2023-03-01T04:04:14;-1.10;99.90
52439;DHT22;38359;53.150;6.504;2023-03-01T04:14:43;-1.30;99.90
52439;DHT22;38359;53.150;6.504;2023-03-01T04:25:08;-1.30;99.90
52439;DHT22;38359;53.150;6.504;2023-03-01T04:35:35;-1.20;99.90
52439;DHT22;38359;53.150;6.504;2023-03-01T04:46:03;-1.70;99.90
52439;DHT22;38359;53.150;6.504;2023-03-01T04:56:31;-1.80;99.90
52439;DHT22;38359;53.150;6.504;2023-03-01T05:06:57;-1.90;99.90
52439;DHT22;38359;53.150;6.504;2023-03-01T05:17:24;-2.00;99.90
52439;DHT22;38359;53.150;6.504;2023-03-01T05:27:50;-1.80;99.90
52439;DHT22;38359;53.150;6.504;2023-03-01T05:38:16;-1.80;99.90
52439;DHT22;38359;53.150;6.504;2023-03-01T05:48:43;-2.00;99.90
52439;DHT22;38359;53.150;6.504;2023-03-01T05:59:09;-1.70;99.90
52439;DHT22;38359;53.150;6.504;2023-03-01T06:09:36;-1.80;99.90
52439;DHT22;38359;53.150;6.504;2023-03-01T06:20:06;-1.80;99.90
52439;DHT22;38359;53.150;6.504;2023-03-01T06:30:33;-1.80;99.90
52439;DHT22;38359;53.150;6.504;2023-03-01T06:41:00;-1.70;99.90
52439;DHT22;38359;53.150;6.504;2023-03-01T06:51:26;-1.60;99.90
52439;DHT22;38359;53.150;6.504;2023-03-01T07:01:52;-1.50;99.90
52439;DHT22;38359;53.150;6.504;2023-03-01T07:12:18;-1.50;99.90
52439;DHT22;38359;53.150;6.504;2023-03-01T07:22:43;-1.30;99.90
52439;DHT22;38359;53.150;6.504;2023-03-01T07:33:09;-1.50;99.90
52439;DHT22;38359;53.150;6.504;2023-03-01T07:43:35;-1.10;99.90
52439;DHT22;38359;53.150;6.504;2023-03-01T07:54:01;-0.70;99.90
52439;DHT22;38359;53.150;6.504;2023-03-01T08:04:27;0.00;99.90
52439;DHT22;38359;53.150;6.504;2023-03-01T08:14:53;0.20;99.90
52439;DHT22;38359;53.150;6.504;2023-03-01T08:25:19;1.60;99.90
52439;DHT22;38359;53.150;6.504;2023-03-01T08:35:45;0.80;99.90
52439;DHT22;38359;53.150;6.504;2023-03-01T08:46:11;1.40;99.90
52439;DHT22;38359;53.150;6.504;2023-03-01T08:56:37;1.50;99.90
52439;DHT22;38359;53.150;6.504;2023-03-01T09:07:03;1.50;99.90
52439;DHT22;38359;53.150;6.504;2023-03-01T09:17:30;2.30;99.90
52439;DHT22;38359;53.150;6.504;2023-03-01T09:27:56;2.90;99.90
52439;DHT22;38359;53.150;6.504;2023-03-01T09:38:22;3.30;99.90
52439;DHT22;38359;53.150;6.504;2023-03-01T09:48:57;3.70;99.90
52439;DHT22;38359;53.150;6.504;2023-03-01T09:59:37;3.60;99.90
52439;DHT22;38359;53.150;6.504;2023-03-01T10:10:27;4.20;99.90
52439;DHT22;38359;53.150;6.504;2023-03-01T10:20:58;4.10;99.90
52439;DHT22;38359;53.150;6.504;2023-03-01T10:31:27;4.20;99.90
52439;DHT22;38359;53.150;6.504;2023-03-01T10:42:05;4.20;99.90
52439;DHT22;38359;53.150;6.504;2023-03-01T10:52:41;5.00;99.90
52439;DHT22;38359;53.150;6.504;2023-03-01T11:03:12;4.80;99.90
52439;DHT22;38359;53.150;6.504;2023-03-01T11:24:37;5.20;99.90
52439;DHT22;38359;53.150;6.504;2023-03-01T11:35:26;5.70;99.90
52439;DHT22;38359;53.150;6.504;2023-03-01T12:08:13;6.60;99.90
52439;DHT22;38359;53.150;6.504;2023-03-01T12:18:53;6.90;99.90
52439;DHT22;38359;53.150;6.504;2023-03-01T13:13:51;8.10;99.90
52439;DHT22;38359;53.150;6.504;2023-03-01T13:24:28;8.30;99.90
52439;DHT22;38359;53.150;6.504;2023-03-01T13:35:22;8.20;99.90
52439;DHT22;38359;53.150;6.504;2023-03-01T13:45:52;9.50;99.90
52439;DHT22;38359;53.150;6.504;2023-03-01T13:56:28;10.70;99.90
52439;DHT22;38359;53.150;6.504;2023-03-01T14:07:21;11.60;99.90
52439;DHT22;38359;53.150;6.504;2023-03-01T14:18:10;12.40;99.90
52439;DHT22;38359;53.150;6.504;2023-03-01T14:28:48;12.30;99.90
52439;DHT22;38359;53.150;6.504;2023-03-01T14:39:24;14.10;99.90
52439;DHT22;38359;53.150;6.504;2023-03-01T14:49:57;13.60;99.90
52439;DHT22;38359;53.150;6.504;2023-03-01T15:00:28;14.40;99.90
52439;DHT22;38359;53.150;6.504;2023-03-01T15:21:49;15.00;99.90
52439;DHT22;38359;53.150;6.504;2023-03-01T15:32:33;14.30;99.90
52439;DHT22;38359;53.150;6.504;2023-03-01T15:43:04;14.80;99.90
52439;DHT22;38359;53.150;6.504;2023-03-01T15:53:31;13.90;99.90
52439;DHT22;38359;53.150;6.504;2023-03-01T16:03:58;10.80;99.90
52439;DHT22;38359;53.150;6.504;2023-03-01T16:14:24;10.00;99.90
52439;DHT22;38359;53.150;6.504;2023-03-01T16:24:51;9.60;99.90
52439;DHT22;38359;53.150;6.504;2023-03-01T16:35:19;9.00;99.90
52439;DHT22;38359;53.150;6.504;2023-03-01T16:45:45;8.90;99.90
52439;DHT22;38359;53.150;6.504;2023-03-01T16:56:12;8.40;99.90
52439;DHT22;38359;53.150;6.504;2023-03-01T17:06:38;8.10;99.90
52439;DHT22;38359;53.150;6.504;2023-03-01T17:17:04;7.80;99.90
52439;DHT22;38359;53.150;6.504;2023-03-01T17:27:30;7.10;99.90
52439;DHT22;38359;53.150;6.504;2023-03-01T17:38:06;6.60;99.90
52439;DHT22;38359;53.150;6.504;2023-03-01T17:48:31;6.50;99.90
52439;DHT22;38359;53.150;6.504;2023-03-01T17:58:57;6.40;99.90
52439;DHT22;38359;53.150;6.504;2023-03-01T18:09:25;6.20;99.90
52439;DHT22;38359;53.150;6.504;2023-03-01T18:19:51;6.10;99.90
52439;DHT22;38359;53.150;6.504;2023-03-01T18:30:18;5.70;99.90
52439;DHT22;38359;53.150;6.504;2023-03-01T18:40:44;5.50;99.90
52439;DHT22;38359;53.150;6.504;2023-03-01T18:51:16;5.00;99.90
52439;DHT22;38359;53.150;6.504;2023-03-01T19:01:43;4.80;99.90
52439;DHT22;38359;53.150;6.504;2023-03-01T19:12:09;4.30;99.90
52439;DHT22;38359;53.150;6.504;2023-03-01T19:22:35;4.30;99.90
52439;DHT22;38359;53.150;6.504;2023-03-01T19:33:00;4.40;99.90
52439;DHT22;38359;53.150;6.504;2023-03-01T19:43:26;4.30;99.90
52439;DHT22;38359;53.150;6.504;2023-03-01T19:53:53;4.60;99.90
52439;DHT22;38359;53.150;6.504;2023-03-01T20:04:19;4.60;99.90
52439;DHT22;38359;53.150;6.504;2023-03-01T20:14:45;4.40;99.90
52439;DHT22;38359;53.150;6.504;2023-03-01T20:25:13;4.70;99.90
52439;DHT22;38359;53.150;6.504;2023-03-01T20:35:42;4.80;99.90
52439;DHT22;38359;53.150;6.504;2023-03-01T20:46:10;4.50;99.90
52439;DHT22;38359;53.150;6.504;2023-03-01T20:56:37;4.90;99.90
52439;DHT22;38359;53.150;6.504;2023-03-01T21:07:03;5.30;99.90
52439;DHT22;38359;53.150;6.504;2023-03-01T21:17:28;4.90;99.90
52439;DHT22;38359;53.150;6.504;2023-03-01T21:27:54;5.30;99.90
52439;DHT22;38359;53.150;6.504;2023-03-01T21:38:20;4.50;99.90
52439;DHT22;38359;53.150;6.504;2023-03-01T21:48:47;4.70;99.90
52439;DHT22;38359;53.150;6.504;2023-03-01T21:59:16;5.00;99.90
52439;DHT22;38359;53.150;6.504;2023-03-01T22:09:44;4.60;99.90
52439;DHT22;38359;53.150;6.504;2023-03-01T22:20:11;4.70;99.90
52439;DHT22;38359;53.150;6.504;2023-03-01T22:30:38;4.40;99.90
52439;DHT22;38359;53.150;6.504;2023-03-01T22:41:04;4.70;99.90
52439;DHT22;38359;53.150;6.504;2023-03-01T22:51:34;4.30;99.90
52439;DHT22;38359;53.150;6.504;2023-03-01T23:02:01;4.70;99.90
52439;DHT22;38359;53.150;6.504;2023-03-01T23:12:27;4.30;99.90
52439;DHT22;38359;53.150;6.504;2023-03-01T23:22:53;4.00;99.90
52439;DHT22;38359;53.150;6.504;2023-03-01T23:33:26;4.10;99.90
52439;DHT22;38359;53.150;6.504;2023-03-01T23:43:55;4.40;99.90
52439;DHT22;38359;53.150;6.504;2023-03-01T23:54:23;4.50;99.90
